Time,TemperatureF,DewpointF,PressureIn,WindDirection,WindDirectionDegrees,WindSpeedMPH,WindSpeedGustMPH,Humidity,HourlyPrecipIn,Conditions,Clouds,dailyrainin,SoftwareType,DateUTC
2013-08-03 00:02:00,69.0,-99.9,-100.00,ENE,70,0.0,0.0,-999,0.00,,,0.00,,2013-08-03 05:02:00,
2013-08-03 00:12:00,68.0,-99.9,-100.00,NNW,337,0.0,0.0,-999,0.00,,,0.00,,2013-08-03 05:12:00,
2013-08-03 00:22:00,68.0,-99.9,-100.00,NNW,337,0.0,0.0,-999,0.00,,,0.00,,2013-08-03 05:22:00,
2013-08-03 00:32:00,68.0,-99.9,-100.00,NNW,337,0.0,0.0,-999,0.00,,,0.00,,2013-08-03 05:32:00,
2013-08-03 00:43:00,68.0,-99.9,-100.00,North,353,2.0,2.0,-999,0.00,,,0.00,,2013-08-03 05:43:00,
2013-08-03 00:53:00,68.0,-99.9,-100.00,North,353,2.0,2.0,-999,0.00,,,0.00,,2013-08-03 05:53:00,
2013-08-03 01:02:00,68.0,-99.9,-100.00,North,353,2.0,2.0,-999,0.00,,,0.00,,2013-08-03 06:02:00,
2013-08-03 01:12:00,69.0,-99.9,-100.00,North,350,3.0,5.0,-999,0.00,,,0.00,,2013-08-03 06:12:00,
2013-08-03 01:23:00,69.0,-99.9,-100.00,North,350,3.0,5.0,-999,0.00,,,0.00,,2013-08-03 06:23:00,
2013-08-03 01:33:00,69.0,-99.9,-100.00,North,350,3.0,5.0,-999,0.00,,,0.00,,2013-08-03 06:33:00,
2013-08-03 01:42:00,68.0,-99.9,-100.00,North,358,2.0,3.0,-999,0.00,,,0.00,,2013-08-03 06:42:00,
2013-08-03 01:52:00,68.0,-99.9,-100.00,North,358,2.0,3.0,-999,0.00,,,0.00,,2013-08-03 06:52:00,
2013-08-03 02:02:00,68.0,-99.9,-100.00,North,358,2.0,3.0,-999,0.00,,,0.00,,2013-08-03 07:02:00,
2013-08-03 02:12:00,68.0,-99.9,-100.00,NNW,347,2.0,3.0,-999,0.00,,,0.00,,2013-08-03 07:12:00,
2013-08-03 02:22:00,68.0,-99.9,-100.00,NNW,347,2.0,3.0,-999,0.00,,,0.00,,2013-08-03 07:22:00,
2013-08-03 02:32:00,68.0,-99.9,-100.00,NNW,347,2.0,3.0,-999,0.00,,,0.00,,2013-08-03 07:32:00,
2013-08-03 02:40:00,69.0,-99.9,-100.00,WNW,295,5.0,6.0,-999,0.00,,,0.00,,2013-08-03 07:40:00,
2013-08-03 02:43:00,69.0,-99.9,-100.00,NNW,337,3.0,4.0,-999,0.00,,,0.00,,2013-08-03 07:43:00,
2013-08-03 02:53:00,69.0,-99.9,-100.00,NNW,337,3.0,4.0,-999,0.00,,,0.00,,2013-08-03 07:53:00,
2013-08-03 03:02:00,69.0,-99.9,-100.00,NNW,337,3.0,4.0,-999,0.00,,,0.00,,2013-08-03 08:02:00,
2013-08-03 03:12:00,69.0,-99.9,-100.00,WNW,295,5.0,6.0,-999,0.00,,,0.00,,2013-08-03 08:12:00,
2013-08-03 03:22:00,69.0,-99.9,-100.00,WNW,295,5.0,6.0,-999,0.00,,,0.00,,2013-08-03 08:22:00,
2013-08-03 03:32:00,69.0,-99.9,-100.00,WNW,295,5.0,6.0,-999,0.00,,,0.00,,2013-08-03 08:32:00,
2013-08-03 04:12:00,67.0,-99.9,-100.00,NNW,342,4.0,5.0,-999,0.00,,,0.00,,2013-08-03 09:12:00,
2013-08-03 04:22:00,67.0,-99.9,-100.00,NNW,342,4.0,5.0,-999,0.00,,,0.00,,2013-08-03 09:22:00,
2013-08-03 04:32:00,67.0,-99.9,-100.00,NNW,342,4.0,5.0,-999,0.00,,,0.00,,2013-08-03 09:32:00,
2013-08-03 04:43:00,66.0,-99.9,-100.00,NNW,344,3.0,6.0,-999,0.00,,,0.00,,2013-08-03 09:43:00,
2013-08-03 04:53:00,66.0,-99.9,-100.00,NNW,344,3.0,6.0,-999,0.00,,,0.00,,2013-08-03 09:53:00,
2013-08-03 05:02:00,66.0,-99.9,-100.00,NNW,344,3.0,6.0,-999,0.00,,,0.00,,2013-08-03 10:02:00,
2013-08-03 05:12:00,65.0,-99.9,-100.00,NNW,342,4.0,7.0,-999,0.00,,,0.00,,2013-08-03 10:12:00,
2013-08-03 05:22:00,65.0,-99.9,-100.00,NNW,342,4.0,7.0,-999,0.00,,,0.00,,2013-08-03 10:22:00,
2013-08-03 05:33:00,65.0,-99.9,-100.00,NNW,342,4.0,7.0,-999,0.00,,,0.00,,2013-08-03 10:33:00,
2013-08-03 05:43:00,64.0,-99.9,-100.00,NNW,342,2.0,3.0,-999,0.00,,,0.00,,2013-08-03 10:43:00,
2013-08-03 05:53:00,64.0,-99.9,-100.00,NNW,342,2.0,3.0,-999,0.00,,,0.00,,2013-08-03 10:53:00,
2013-08-03 06:02:00,64.0,-99.9,-100.00,NNW,342,2.0,3.0,-999,0.00,,,0.00,,2013-08-03 11:02:00,
2013-08-03 06:12:00,63.0,-99.9,-100.00,North,354,2.0,4.0,-999,0.00,,,0.00,,2013-08-03 11:12:00,
2013-08-03 06:23:00,63.0,-99.9,-100.00,North,354,2.0,4.0,-999,0.00,,,0.00,,2013-08-03 11:23:00,
2013-08-03 06:32:00,63.0,-99.9,-100.00,North,354,2.0,4.0,-999,0.00,,,0.00,,2013-08-03 11:32:00,
2013-08-03 06:43:00,63.0,-99.9,-100.00,NNW,345,1.0,3.0,-999,0.00,,,0.00,,2013-08-03 11:43:00,
2013-08-03 06:53:00,63.0,-99.9,-100.00,NNW,345,1.0,3.0,-999,0.00,,,0.00,,2013-08-03 11:53:00,
2013-08-03 07:03:00,63.0,-99.9,-100.00,NNW,345,1.0,3.0,-999,0.00,,,0.00,,2013-08-03 12:03:00,
2013-08-03 07:12:00,63.0,-99.9,-100.00,NNW,332,1.0,2.0,-999,0.00,,,0.00,,2013-08-03 12:12:00,
2013-08-03 07:22:00,63.0,-99.9,-100.00,NNW,332,1.0,2.0,-999,0.00,,,0.00,,2013-08-03 12:22:00,
2013-08-03 07:33:00,63.0,-99.9,-100.00,NNW,332,1.0,2.0,-999,0.00,,,0.00,,2013-08-03 12:33:00,
2013-08-03 07:43:00,64.0,-99.9,-100.00,NNW,336,3.0,4.0,-999,0.00,,,0.00,,2013-08-03 12:43:00,
2013-08-03 07:53:00,64.0,-99.9,-100.00,NNW,336,3.0,4.0,-999,0.00,,,0.00,,2013-08-03 12:53:00,
2013-08-03 08:02:00,64.0,-99.9,-100.00,NNW,336,3.0,4.0,-999,0.00,,,0.00,,2013-08-03 13:02:00,
2013-08-03 08:12:00,67.0,-99.9,-100.00,NNW,331,2.0,3.0,-999,0.00,,,0.00,,2013-08-03 13:12:00,
2013-08-03 08:22:00,67.0,-99.9,-100.00,NNW,331,2.0,3.0,-999,0.00,,,0.00,,2013-08-03 13:22:00,
2013-08-03 08:33:00,67.0,-99.9,-100.00,NNW,331,2.0,3.0,-999,0.00,,,0.00,,2013-08-03 13:33:00,
2013-08-03 08:43:00,68.0,-99.9,-100.00,NNW,345,2.0,4.0,-999,0.00,,,0.00,,2013-08-03 13:43:00,
2013-08-03 08:52:00,68.0,-99.9,-100.00,NNW,345,2.0,4.0,-999,0.00,,,0.00,,2013-08-03 13:52:00,
2013-08-03 09:02:00,68.0,-99.9,-100.00,NNW,345,2.0,4.0,-999,0.00,,,0.00,,2013-08-03 14:02:00,
2013-08-03 09:13:00,69.0,-99.9,-100.00,NNW,343,3.0,6.0,-999,0.00,,,0.00,,2013-08-03 14:13:00,
2013-08-03 09:22:00,69.0,-99.9,-100.00,NNW,343,3.0,6.0,-999,0.00,,,0.00,,2013-08-03 14:22:00,
2013-08-03 09:33:00,69.0,-99.9,-100.00,NNW,343,3.0,6.0,-999,0.00,,,0.00,,2013-08-03 14:33:00,
2013-08-03 09:43:00,72.0,-99.9,-100.00,NNW,333,3.0,5.0,-999,0.00,,,0.00,,2013-08-03 14:43:00,
2013-08-03 09:52:00,72.0,-99.9,-100.00,NNW,333,3.0,5.0,-999,0.00,,,0.00,,2013-08-03 14:52:00,
2013-08-03 10:02:00,72.0,-99.9,-100.00,NNW,333,3.0,5.0,-999,0.00,,,0.00,,2013-08-03 15:02:00,
2013-08-03 10:12:00,72.0,-99.9,-100.00,NW,322,3.0,6.0,-999,0.00,,,0.00,,2013-08-03 15:12:00,
2013-08-03 10:23:00,72.0,-99.9,-100.00,NW,322,3.0,6.0,-999,0.00,,,0.00,,2013-08-03 15:23:00,
2013-08-03 10:32:00,72.0,-99.9,-100.00,NW,322,3.0,6.0,-999,0.00,,,0.00,,2013-08-03 15:32:00,
2013-08-03 10:43:00,74.0,-99.9,-100.00,NW,322,3.0,6.0,-999,0.00,,,0.00,,2013-08-03 15:43:00,
2013-08-03 10:53:00,74.0,-99.9,-100.00,NW,322,3.0,6.0,-999,0.00,,,0.00,,2013-08-03 15:53:00,
2013-08-03 11:02:00,74.0,-99.9,-100.00,NW,322,3.0,6.0,-999,0.00,,,0.00,,2013-08-03 16:02:00,
2013-08-03 11:13:00,75.0,-99.9,-100.00,WNW,298,4.0,5.0,-999,0.00,,,0.00,,2013-08-03 16:13:00,
2013-08-03 11:23:00,75.0,-99.9,-100.00,WNW,298,4.0,5.0,-999,0.00,,,0.00,,2013-08-03 16:23:00,
2013-08-03 11:33:00,75.0,-99.9,-100.00,WNW,298,4.0,5.0,-999,0.00,,,0.00,,2013-08-03 16:33:00,
2013-08-03 11:43:00,75.0,-99.9,-100.00,NW,322,5.0,7.0,-999,0.00,,,0.00,,2013-08-03 16:43:00,
2013-08-03 11:53:00,75.0,-99.9,-100.00,NW,322,5.0,7.0,-999,0.00,,,0.00,,2013-08-03 16:53:00,
2013-08-03 12:03:00,75.0,-99.9,-100.00,NW,322,5.0,7.0,-999,0.00,,,0.00,,2013-08-03 17:03:00,
2013-08-03 12:12:00,76.0,-99.9,-100.00,NNW,336,6.0,9.0,-999,0.00,,,0.00,,2013-08-03 17:12:00,
2013-08-03 12:22:00,76.0,-99.9,-100.00,NNW,336,6.0,9.0,-999,0.00,,,0.00,,2013-08-03 17:22:00,
2013-08-03 12:32:00,76.0,-99.9,-100.00,NNW,336,6.0,9.0,-999,0.00,,,0.00,,2013-08-03 17:32:00,
2013-08-03 12:43:00,76.0,-99.9,-100.00,NW,313,7.0,12.0,-999,0.00,,,0.00,,2013-08-03 17:43:00,
2013-08-03 12:52:00,76.0,-99.9,-100.00,NW,313,7.0,12.0,-999,0.00,,,0.00,,2013-08-03 17:52:00,
2013-08-03 13:02:00,76.0,-99.9,-100.00,NW,313,7.0,12.0,-999,0.00,,,0.00,,2013-08-03 18:02:00,
2013-08-03 13:12:00,76.0,-99.9,-100.00,NW,311,6.0,9.0,-999,0.00,,,0.00,,2013-08-03 18:12:00,
2013-08-03 13:22:00,76.0,-99.9,-100.00,NW,311,6.0,9.0,-999,0.00,,,0.00,,2013-08-03 18:22:00,
2013-08-03 13:32:00,76.0,-99.9,-100.00,NW,311,6.0,9.0,-999,0.00,,,0.00,,2013-08-03 18:32:00,
2013-08-03 13:40:00,78.0,-99.9,-100.00,NNW,339,4.0,7.0,-999,0.00,,,0.00,,2013-08-03 18:40:00,
2013-08-03 13:43:00,77.0,-99.9,-100.00,NNW,342,3.0,7.0,-999,0.00,,,0.00,,2013-08-03 18:43:00,
2013-08-03 13:53:00,77.0,-99.9,-100.00,NNW,342,3.0,7.0,-999,0.00,,,0.00,,2013-08-03 18:53:00,
2013-08-03 14:03:00,77.0,-99.9,-100.00,NNW,342,3.0,7.0,-999,0.00,,,0.00,,2013-08-03 19:03:00,
2013-08-03 14:13:00,78.0,-99.9,-100.00,NNW,339,4.0,7.0,-999,0.00,,,0.00,,2013-08-03 19:13:00,
2013-08-03 14:22:00,78.0,-99.9,-100.00,NNW,339,4.0,7.0,-999,0.00,,,0.00,,2013-08-03 19:22:00,
2013-08-03 14:32:00,78.0,-99.9,-100.00,NNW,339,4.0,7.0,-999,0.00,,,0.00,,2013-08-03 19:32:00,
2013-08-03 15:12:00,79.0,-99.9,-100.00,NNW,333,2.0,6.0,-999,0.00,,,0.00,,2013-08-03 20:12:00,
2013-08-03 15:22:00,79.0,-99.9,-100.00,NNW,333,2.0,6.0,-999,0.00,,,0.00,,2013-08-03 20:22:00,
2013-08-03 15:32:00,79.0,-99.9,-100.00,NNW,333,2.0,6.0,-999,0.00,,,0.00,,2013-08-03 20:32:00,
2013-08-03 15:42:00,79.0,-99.9,-100.00,NE,43,2.0,5.0,-999,0.00,,,0.00,,2013-08-03 20:42:00,
2013-08-03 15:52:00,79.0,-99.9,-100.00,NE,43,2.0,5.0,-999,0.00,,,0.00,,2013-08-03 20:52:00,
2013-08-03 16:02:00,79.0,-99.9,-100.00,NE,43,2.0,5.0,-999,0.00,,,0.00,,2013-08-03 21:02:00,
2013-08-03 16:12:00,79.0,-99.9,-100.00,North,3,3.0,7.0,-999,0.00,,,0.00,,2013-08-03 21:12:00,
2013-08-03 16:22:00,79.0,-99.9,-100.00,North,3,3.0,7.0,-999,0.00,,,0.00,,2013-08-03 21:22:00,
2013-08-03 16:32:00,79.0,-99.9,-100.00,North,3,3.0,7.0,-999,0.00,,,0.00,,2013-08-03 21:32:00,
2013-08-03 16:42:00,79.0,-99.9,-100.00,NNE,15,2.0,7.0,-999,0.00,,,0.00,,2013-08-03 21:42:00,
2013-08-03 16:52:00,79.0,-99.9,-100.00,NNE,15,2.0,7.0,-999,0.00,,,0.00,,2013-08-03 21:52:00,
2013-08-03 17:02:00,79.0,-99.9,-100.00,NNE,15,2.0,7.0,-999,0.00,,,0.00,,2013-08-03 22:02:00,
2013-08-03 17:12:00,79.0,-99.9,-100.00,North,9,5.0,9.0,-999,0.00,,,0.00,,2013-08-03 22:12:00,
2013-08-03 17:22:00,79.0,-99.9,-100.00,North,9,5.0,9.0,-999,0.00,,,0.00,,2013-08-03 22:22:00,
2013-08-03 17:33:00,79.0,-99.9,-100.00,North,9,5.0,9.0,-999,0.00,,,0.00,,2013-08-03 22:33:00,
2013-08-03 17:43:00,79.0,-99.9,-100.00,NNE,16,1.0,4.0,-999,0.00,,,0.00,,2013-08-03 22:43:00,
2013-08-03 17:52:00,79.0,-99.9,-100.00,NNE,16,1.0,4.0,-999,0.00,,,0.00,,2013-08-03 22:52:00,
2013-08-03 18:02:00,79.0,-99.9,-100.00,NNE,16,1.0,4.0,-999,0.00,,,0.00,,2013-08-03 23:02:00,
2013-08-03 18:12:00,79.0,-99.9,-100.00,NNE,12,2.0,5.0,-999,0.00,,,0.00,,2013-08-03 23:12:00,
2013-08-03 18:22:00,79.0,-99.9,-100.00,NNE,12,2.0,5.0,-999,0.00,,,0.00,,2013-08-03 23:22:00,
2013-08-03 18:32:00,79.0,-99.9,-100.00,NNE,12,2.0,5.0,-999,0.00,,,0.00,,2013-08-03 23:32:00,
2013-08-03 18:43:00,78.0,-99.9,-100.00,North,360,2.0,4.0,-999,0.00,,,0.00,,2013-08-03 23:43:00,
2013-08-03 18:52:00,78.0,-99.9,-100.00,North,360,2.0,4.0,-999,0.00,,,0.00,,2013-08-03 23:52:00,
2013-08-03 19:03:00,78.0,-99.9,-100.00,North,360,2.0,4.0,-999,0.00,,,0.00,,2013-08-04 00:03:00,
2013-08-03 19:12:00,78.0,-99.9,-100.00,North,359,1.0,3.0,-999,0.00,,,0.00,,2013-08-04 00:12:00,
2013-08-03 19:22:00,78.0,-99.9,-100.00,North,359,1.0,3.0,-999,0.00,,,0.00,,2013-08-04 00:22:00,
2013-08-03 19:32:00,78.0,-99.9,-100.00,North,359,1.0,3.0,-999,0.00,,,0.00,,2013-08-04 00:32:00,
2013-08-03 19:43:00,78.0,-99.9,-100.00,North,352,2.0,3.0,-999,0.00,,,0.00,,2013-08-04 00:43:00,
2013-08-03 19:53:00,78.0,-99.9,-100.00,North,352,2.0,3.0,-999,0.00,,,0.00,,2013-08-04 00:53:00,
2013-08-03 20:02:00,78.0,-99.9,-100.00,North,352,2.0,3.0,-999,0.00,,,0.00,,2013-08-04 01:02:00,
2013-08-03 20:12:00,76.0,-99.9,-100.00,North,350,4.0,6.0,-999,0.00,,,0.00,,2013-08-04 01:12:00,
2013-08-03 20:22:00,76.0,-99.9,-100.00,North,350,4.0,6.0,-999,0.00,,,0.00,,2013-08-04 01:22:00,
2013-08-03 20:32:00,76.0,-99.9,-100.00,North,350,4.0,6.0,-999,0.00,,,0.00,,2013-08-04 01:32:00,
2013-08-03 20:42:00,74.0,-99.9,-100.00,North,352,3.0,5.0,-999,0.00,,,0.00,,2013-08-04 01:42:00,
2013-08-03 20:53:00,74.0,-99.9,-100.00,North,352,3.0,5.0,-999,0.00,,,0.00,,2013-08-04 01:53:00,
2013-08-03 21:03:00,74.0,-99.9,-100.00,North,352,3.0,5.0,-999,0.00,,,0.00,,2013-08-04 02:03:00,
2013-08-03 21:10:00,69.0,-99.9,-100.00,NNW,327,0.0,0.0,-999,0.00,,,0.00,,2013-08-04 02:10:00,
2013-08-03 21:12:00,72.0,-99.9,-100.00,North,4,2.0,3.0,-999,0.00,,,0.00,,2013-08-04 02:12:00,
2013-08-03 21:22:00,72.0,-99.9,-100.00,North,4,2.0,3.0,-999,0.00,,,0.00,,2013-08-04 02:22:00,
2013-08-03 21:32:00,72.0,-99.9,-100.00,North,4,2.0,3.0,-999,0.00,,,0.00,,2013-08-04 02:32:00,
2013-08-03 21:42:00,69.0,-99.9,-100.00,NNW,327,0.0,0.0,-999,0.00,,,0.00,,2013-08-04 02:42:00,
2013-08-03 21:52:00,69.0,-99.9,-100.00,NNW,327,0.0,0.0,-999,0.00,,,0.00,,2013-08-04 02:52:00,
2013-08-03 22:02:00,69.0,-99.9,-100.00,NNW,327,0.0,0.0,-999,0.00,,,0.00,,2013-08-04 03:02:00,
2013-08-03 23:12:00,69.0,-99.9,-100.00,NNW,334,3.0,5.0,-999,-99.99,,,0.00,,2013-08-04 04:12:00,
2013-08-03 23:23:00,69.0,-99.9,-100.00,NNW,334,3.0,5.0,-999,-99.99,,,0.00,,2013-08-04 04:23:00,
2013-08-03 23:32:00,69.0,-99.9,-100.00,NNW,334,3.0,5.0,-999,-99.99,,,0.00,,2013-08-04 04:32:00,
2013-08-03 23:42:00,68.0,-99.9,-100.00,NNW,331,4.0,5.0,-999,0.00,,,0.00,,2013-08-04 04:42:00,
2013-08-03 23:53:00,68.0,-99.9,-100.00,NNW,331,4.0,5.0,-999,0.00,,,0.00,,2013-08-04 04:53:00,